Time,TemperatureF,DewpointF,PressureIn,WindDirection,WindDirectionDegrees,WindSpeedMPH,WindSpeedGustMPH,Humidity,HourlyPrecipIn,Conditions,Clouds,dailyrainin,SoftwareType,DateUTC
2013-02-14 00:00:00,37.2,32.2,28.25,WNW,288,4.6,4.6,82,0.00,CLR,CLR,0.00,WeatherDisplay:10.37,2013-02-14 05:00:00,
2013-02-14 00:01:00,37.3,32.3,28.25,WNW,288,3.5,3.5,82,0.00,CLR,CLR,0.00,WeatherDisplay:10.37,2013-02-14 05:01:00,
2013-02-14 00:06:00,37.3,32.3,28.25,NW,314,8.1,8.1,82,0.00,CLR,CLR,0.00,WeatherDisplay:10.37,2013-02-14 05:06:00,
2013-02-14 00:07:00,37.3,32.3,28.26,West,262,9.2,9.2,82,0.00,CLR,CLR,0.00,WeatherDisplay:10.37,2013-02-14 05:07:00,
2013-02-14 00:12:00,37.5,32.5,28.26,NW,308,11.5,11.5,82,0.00,CLR,CLR,0.00,WeatherDisplay:10.37,2013-02-14 05:12:00,
2013-02-14 00:18:00,37.6,32.6,28.26,West,274,9.2,9.2,82,0.00,CLR,CLR,0.00,WeatherDisplay:10.37,2013-02-14 05:18:00,
2013-02-14 00:23:00,37.7,32.7,28.26,West,279,9.2,9.2,82,0.00,CLR,CLR,0.00,WeatherDisplay:10.37,2013-02-14 05:23:00,
2013-02-14 00:28:00,37.8,32.8,28.26,WSW,251,11.5,11.5,82,0.00,CLR,CLR,0.00,WeatherDisplay:10.37,2013-02-14 05:28:00,
2013-02-14 00:33:00,37.9,32.9,28.27,West,281,4.6,4.6,82,0.00,CLR,CLR,0.00,WeatherDisplay:10.37,2013-02-14 05:33:00,
2013-02-14 00:39:00,37.9,32.9,28.27,NW,314,6.0,6.0,82,0.00,CLR,CLR,0.00,WeatherDisplay:10.37,2013-02-14 05:39:00,
2013-02-14 00:44:00,38.0,33.0,28.27,WNW,291,3.5,3.5,82,0.00,CLR,CLR,0.00,WeatherDisplay:10.37,2013-02-14 05:44:00,
2013-02-14 00:49:00,38.0,33.0,28.27,SW,224,3.5,3.5,82,0.00,CLR,CLR,0.00,WeatherDisplay:10.37,2013-02-14 05:49:00,
2013-02-14 00:54:00,38.0,33.0,28.27,WNW,294,5.0,5.0,82,0.00,CLR,CLR,0.00,WeatherDisplay:10.37,2013-02-14 05:54:00,
2013-02-14 01:00:00,38.1,33.1,28.27,NNW,347,6.9,6.9,82,0.00,CLR,CLR,0.00,WeatherDisplay:10.37,2013-02-14 06:00:00,
2013-02-14 01:05:00,38.1,32.8,28.27,WNW,298,16.1,16.1,81,0.00,CLR,CLR,0.00,WeatherDisplay:10.37,2013-02-14 06:05:00,
2013-02-14 01:10:00,38.2,32.9,28.28,WNW,300,10.4,10.4,81,0.00,CLR,CLR,0.00,WeatherDisplay:10.37,2013-02-14 06:10:00,
2013-02-14 01:15:00,38.3,32.7,28.28,WNW,295,9.2,9.2,80,0.00,CLR,CLR,0.00,WeatherDisplay:10.37,2013-02-14 06:15:00,
2013-02-14 01:20:00,38.3,32.7,28.29,NNW,335,11.5,11.5,80,0.00,CLR,CLR,0.00,WeatherDisplay:10.37,2013-02-14 06:20:00,
2013-02-14 01:25:00,38.3,32.7,28.28,West,278,5.8,5.8,80,0.00,CLR,CLR,0.00,WeatherDisplay:10.37,2013-02-14 06:25:00,
2013-02-14 01:30:00,38.2,32.6,28.28,West,281,3.5,3.5,80,0.00,CLR,CLR,0.00,WeatherDisplay:10.37,2013-02-14 06:30:00,
2013-02-14 01:36:00,38.0,32.4,28.29,West,281,0.0,0.0,80,0.00,CLR,CLR,0.00,WeatherDisplay:10.37,2013-02-14 06:36:00,
2013-02-14 01:41:00,37.8,32.2,28.29,WNW,285,3.5,3.5,80,0.00,CLR,CLR,0.00,WeatherDisplay:10.37,2013-02-14 06:41:00,
2013-02-14 01:46:00,37.7,32.1,28.30,WSW,241,3.0,3.0,80,0.00,CLR,CLR,0.00,WeatherDisplay:10.37,2013-02-14 06:46:00,
2013-02-14 01:51:00,37.6,32.0,28.29,West,281,3.5,3.5,80,0.00,CLR,CLR,0.00,WeatherDisplay:10.37,2013-02-14 06:51:00,
2013-02-14 01:56:00,37.5,31.3,28.29,West,281,9.2,9.2,78,0.00,CLR,CLR,0.00,WeatherDisplay:10.37,2013-02-14 06:56:00,
2013-02-14 02:02:00,37.4,31.2,28.29,West,266,4.6,4.6,78,0.00,CLR,CLR,0.00,WeatherDisplay:10.37,2013-02-14 07:02:00,
2013-02-14 02:07:00,37.2,31.0,28.30,WNW,299,10.4,10.4,78,0.00,CLR,CLR,0.00,WeatherDisplay:10.37,2013-02-14 07:07:00,
2013-02-14 02:12:00,37.1,30.9,28.30,WSW,249,3.5,3.5,78,0.00,CLR,CLR,0.00,WeatherDisplay:10.37,2013-02-14 07:12:00,
2013-02-14 02:17:00,36.9,30.7,28.30,WNW,298,5.8,5.8,78,0.00,CLR,CLR,0.00,WeatherDisplay:10.37,2013-02-14 07:17:00,
2013-02-14 02:22:00,36.7,30.5,28.29,West,280,4.6,4.6,78,0.00,CLR,CLR,0.00,WeatherDisplay:10.37,2013-02-14 07:22:00,
2013-02-14 02:28:00,36.6,30.4,28.30,West,280,2.3,2.3,78,0.00,CLR,CLR,0.00,WeatherDisplay:10.37,2013-02-14 07:28:00,
2013-02-14 02:33:00,36.4,30.2,28.30,West,279,3.5,3.5,78,0.00,CLR,CLR,0.00,WeatherDisplay:10.37,2013-02-14 07:33:00,
2013-02-14 02:38:00,36.3,30.1,28.31,West,279,0.0,0.0,78,0.00,CLR,CLR,0.00,WeatherDisplay:10.37,2013-02-14 07:38:00,
2013-02-14 02:44:00,36.1,30.2,28.30,West,279,3.5,3.5,79,0.00,CLR,CLR,0.00,WeatherDisplay:10.37,2013-02-14 07:44:00,
2013-02-14 02:49:00,36.1,30.2,28.31,West,279,3.5,3.5,79,0.00,CLR,CLR,0.00,WeatherDisplay:10.37,2013-02-14 07:49:00,
2013-02-14 02:54:00,36.1,29.9,28.31,West,279,3.5,3.5,78,0.00,CLR,CLR,0.00,WeatherDisplay:10.37,2013-02-14 07:54:00,
2013-02-14 02:59:00,35.9,29.7,28.31,WNW,286,4.6,4.6,78,0.00,CLR,CLR,0.00,WeatherDisplay:10.37,2013-02-14 07:59:00,
2013-02-14 03:04:00,35.8,29.3,28.31,WNW,286,1.2,1.2,77,0.00,CLR,CLR,0.00,WeatherDisplay:10.37,2013-02-14 08:04:00,
2013-02-14 03:10:00,35.7,29.8,28.31,WNW,286,3.5,3.5,79,0.00,CLR,CLR,0.00,WeatherDisplay:10.37,2013-02-14 08:10:00,
2013-02-14 03:15:00,35.6,29.4,28.31,WNW,286,2.3,2.3,78,0.00,CLR,CLR,0.00,WeatherDisplay:10.37,2013-02-14 08:15:00,
2013-02-14 03:20:00,35.6,29.4,28.31,WNW,288,3.5,3.5,78,0.00,CLR,CLR,0.00,WeatherDisplay:10.37,2013-02-14 08:20:00,
2013-02-14 03:25:00,35.5,29.6,28.31,WNW,288,2.3,2.3,79,0.00,CLR,CLR,0.00,WeatherDisplay:10.37,2013-02-14 08:25:00,
2013-02-14 03:31:00,35.5,29.6,28.30,WNW,302,4.6,4.6,79,0.00,CLR,CLR,0.00,WeatherDisplay:10.37,2013-02-14 08:31:00,
2013-02-14 03:36:00,35.4,29.5,28.31,WSW,249,3.5,3.5,79,0.00,CLR,CLR,0.00,WeatherDisplay:10.37,2013-02-14 08:36:00,
2013-02-14 03:41:00,35.3,29.4,28.31,NNW,336,3.5,3.5,79,0.00,CLR,CLR,0.00,WeatherDisplay:10.37,2013-02-14 08:41:00,
2013-02-14 03:46:00,35.3,29.1,28.31,NNW,327,5.8,5.8,78,0.00,CLR,CLR,0.00,WeatherDisplay:10.37,2013-02-14 08:46:00,
2013-02-14 03:51:00,35.3,29.1,28.31,WNW,292,5.8,5.8,78,0.00,CLR,CLR,0.00,WeatherDisplay:10.37,2013-02-14 08:51:00,
2013-02-14 03:57:00,35.3,29.4,28.32,WNW,285,3.5,3.5,79,0.00,CLR,CLR,0.00,WeatherDisplay:10.37,2013-02-14 08:57:00,
2013-02-14 04:02:00,35.3,29.1,28.32,NW,320,8.1,8.1,78,0.00,CLR,CLR,0.00,WeatherDisplay:10.37,2013-02-14 09:02:00,
2013-02-14 04:07:00,35.3,29.1,28.32,WNW,288,3.5,3.5,78,0.00,CLR,CLR,0.00,WeatherDisplay:10.37,2013-02-14 09:07:00,
2013-02-14 04:12:00,35.1,28.9,28.32,WNW,289,4.6,4.6,78,0.00,CLR,CLR,0.00,WeatherDisplay:10.37,2013-02-14 09:12:00,
2013-02-14 04:17:00,35.1,28.9,28.32,WNW,302,6.0,6.0,78,0.00,CLR,CLR,0.00,WeatherDisplay:10.37,2013-02-14 09:17:00,
2013-02-14 04:23:00,35.1,28.9,28.32,NW,309,4.0,4.0,78,0.00,CLR,CLR,0.00,WeatherDisplay:10.37,2013-02-14 09:23:00,
2013-02-14 04:28:00,35.1,28.6,28.32,WNW,287,10.0,10.0,77,0.00,CLR,CLR,0.00,WeatherDisplay:10.37,2013-02-14 09:28:00,
2013-02-14 04:33:00,35.1,28.6,28.32,NW,322,11.0,11.0,77,0.00,CLR,CLR,0.00,WeatherDisplay:10.37,2013-02-14 09:33:00,
2013-02-14 04:38:00,35.0,28.5,28.33,West,273,4.6,4.6,77,0.00,CLR,CLR,0.00,WeatherDisplay:10.37,2013-02-14 09:38:00,
2013-02-14 04:43:00,35.0,28.5,28.33,West,271,13.8,13.8,77,0.00,CLR,CLR,0.00,WeatherDisplay:10.37,2013-02-14 09:43:00,
2013-02-14 04:49:00,35.0,28.2,28.32,WNW,285,11.5,11.5,76,0.00,CLR,CLR,0.00,WeatherDisplay:10.37,2013-02-14 09:49:00,
2013-02-14 04:54:00,35.0,28.2,28.33,NW,305,6.9,6.9,76,0.00,CLR,CLR,0.00,WeatherDisplay:10.37,2013-02-14 09:54:00,
2013-02-14 04:59:00,34.9,28.1,28.33,WNW,302,3.5,3.5,76,0.00,CLR,CLR,0.00,WeatherDisplay:10.37,2013-02-14 09:59:00,
2013-02-14 05:04:00,34.8,28.3,28.33,WNW,295,4.6,4.6,77,0.00,CLR,CLR,0.00,WeatherDisplay:10.37,2013-02-14 10:04:00,
2013-02-14 05:09:00,34.7,27.9,28.33,NW,304,5.8,5.8,76,0.00,CLR,CLR,0.00,WeatherDisplay:10.37,2013-02-14 10:09:00,
2013-02-14 05:15:00,34.5,27.4,28.33,WNW,291,6.0,6.0,75,0.00,CLR,CLR,0.00,WeatherDisplay:10.37,2013-02-14 10:15:00,
2013-02-14 05:20:00,34.6,27.5,28.33,West,275,5.8,5.8,75,0.00,CLR,CLR,0.00,WeatherDisplay:10.37,2013-02-14 10:20:00,
2013-02-14 05:25:00,34.5,27.7,28.33,WNW,291,7.0,7.0,76,0.00,CLR,CLR,0.00,WeatherDisplay:10.37,2013-02-14 10:25:00,
2013-02-14 05:30:00,34.5,27.4,28.33,WNW,298,6.9,6.9,75,0.00,CLR,CLR,0.00,WeatherDisplay:10.37,2013-02-14 10:30:00,
2013-02-14 05:35:00,34.4,27.3,28.34,NW,317,9.2,9.2,75,0.00,CLR,CLR,0.00,WeatherDisplay:10.37,2013-02-14 10:35:00,
2013-02-14 05:40:00,34.5,27.4,28.34,West,266,8.1,8.1,75,0.00,CLR,CLR,0.00,WeatherDisplay:10.37,2013-02-14 10:40:00,
2013-02-14 05:45:00,34.4,27.3,28.34,West,265,5.8,5.8,75,0.00,CLR,CLR,0.00,WeatherDisplay:10.37,2013-02-14 10:45:00,
2013-02-14 05:50:00,34.3,27.2,28.42,WSW,255,3.5,3.5,75,0.00,CLR,CLR,0.00,WeatherDisplay:10.37,2013-02-14 10:50:00,
2013-02-14 05:55:00,34.2,27.4,28.43,WSW,256,4.6,4.6,76,0.00,CLR,CLR,0.00,WeatherDisplay:10.37,2013-02-14 10:55:00,
2013-02-14 06:01:00,34.1,27.3,28.45,NW,306,4.0,4.0,76,0.00,CLR,CLR,0.00,WeatherDisplay:10.37,2013-02-14 11:01:00,
2013-02-14 06:06:00,33.9,27.1,28.45,NW,306,1.2,1.2,76,0.00,CLR,CLR,0.00,WeatherDisplay:10.37,2013-02-14 11:06:00,
2013-02-14 06:11:00,33.8,27.4,28.43,NW,306,3.5,3.5,77,0.00,CLR,CLR,0.00,WeatherDisplay:10.37,2013-02-14 11:11:00,
2013-02-14 06:16:00,33.7,27.3,28.43,NW,306,2.3,2.3,77,0.00,CLR,CLR,0.00,WeatherDisplay:10.37,2013-02-14 11:16:00,
2013-02-14 06:22:00,33.5,27.4,28.43,WNW,296,3.5,3.5,78,0.00,CLR,CLR,0.00,WeatherDisplay:10.37,2013-02-14 11:22:00,
2013-02-14 06:27:00,33.5,27.4,28.45,WNW,295,3.5,3.5,78,0.00,CLR,CLR,0.00,WeatherDisplay:10.37,2013-02-14 11:27:00,
2013-02-14 06:32:00,33.3,27.2,28.41,WNW,295,1.2,0.0,78,0.00,CLR,CLR,0.00,WeatherDisplay:10.37,2013-02-14 11:32:00,
2013-02-14 06:37:00,33.1,27.0,28.42,WNW,296,2.3,2.3,78,0.00,CLR,CLR,0.00,WeatherDisplay:10.37,2013-02-14 11:37:00,
2013-02-14 06:42:00,32.8,27.0,28.42,WNW,295,2.3,2.3,79,0.00,CLR,CLR,0.00,WeatherDisplay:10.37,2013-02-14 11:42:00,
2013-02-14 06:47:00,32.6,26.8,28.42,WNW,295,2.3,2.3,79,0.00,CLR,CLR,0.00,WeatherDisplay:10.37,2013-02-14 11:47:00,
2013-02-14 06:53:00,32.5,27.0,28.42,WNW,295,2.3,2.3,80,0.00,CLR,CLR,0.00,WeatherDisplay:10.37,2013-02-14 11:53:00,
2013-02-14 06:58:00,32.4,27.2,28.43,WNW,295,3.5,3.5,81,0.00,CLR,CLR,0.00,WeatherDisplay:10.37,2013-02-14 11:58:00,
2013-02-14 07:03:00,32.4,27.2,29.10,WNW,295,3.5,3.5,81,0.00,CLR,CLR,0.00,WeatherDisplay:10.37,2013-02-14 12:03:00,
2013-02-14 07:09:00,32.2,27.0,29.04,WNW,295,3.5,3.5,81,0.00,CLR,CLR,0.00,WeatherDisplay:10.37,2013-02-14 12:09:00,
2013-02-14 07:14:00,32.2,26.7,29.01,WSW,255,3.5,3.5,80,0.00,CLR,CLR,0.00,WeatherDisplay:10.37,2013-02-14 12:14:00,
2013-02-14 07:19:00,32.4,26.9,29.06,WSW,255,2.3,2.3,80,0.00,CLR,CLR,0.00,WeatherDisplay:10.37,2013-02-14 12:19:00,
2013-02-14 07:24:00,32.5,27.0,29.10,WSW,255,3.5,3.5,80,0.00,CLR,CLR,0.00,WeatherDisplay:10.37,2013-02-14 12:24:00,
2013-02-14 07:30:00,32.8,27.3,29.03,WSW,255,2.3,2.3,80,0.00,CLR,CLR,0.00,WeatherDisplay:10.37,2013-02-14 12:30:00,
2013-02-14 07:35:00,33.3,27.8,29.04,SW,215,4.6,4.6,80,0.00,CLR,CLR,0.00,WeatherDisplay:10.37,2013-02-14 12:35:00,
2013-02-14 07:40:00,33.6,28.1,29.03,WSW,253,2.3,2.3,80,0.00,CLR,CLR,0.00,WeatherDisplay:10.37,2013-02-14 12:40:00,
2013-02-14 07:45:00,34.0,28.5,29.04,WSW,253,3.5,3.5,80,0.00,CLR,CLR,0.00,WeatherDisplay:10.37,2013-02-14 12:45:00,
2013-02-14 07:50:00,34.3,28.5,28.99,WSW,253,2.0,2.0,79,0.00,CLR,CLR,0.00,WeatherDisplay:10.37,2013-02-14 12:50:00,
2013-02-14 07:56:00,34.6,29.1,29.01,WSW,253,2.3,2.3,80,0.00,CLR,CLR,0.00,WeatherDisplay:10.37,2013-02-14 12:56:00,
2013-02-14 08:01:00,34.9,29.0,29.10,WSW,253,3.0,3.0,79,0.00,CLR,CLR,0.00,WeatherDisplay:10.37,2013-02-14 13:01:00,
2013-02-14 08:06:00,35.2,29.3,29.06,WSW,254,3.5,3.5,79,0.00,CLR,CLR,0.00,WeatherDisplay:10.37,2013-02-14 13:06:00,
2013-02-14 08:11:00,35.4,29.5,29.16,WSW,255,3.5,3.5,79,0.00,CLR,CLR,0.00,WeatherDisplay:10.37,2013-02-14 13:11:00,
2013-02-14 08:17:00,35.5,29.3,29.17,WSW,255,3.5,3.5,78,0.00,CLR,CLR,0.00,WeatherDisplay:10.37,2013-02-14 13:17:00,
2013-02-14 08:22:00,35.8,29.6,29.22,WSW,256,2.3,2.3,78,0.00,CLR,CLR,0.00,WeatherDisplay:10.37,2013-02-14 13:22:00,
2013-02-14 08:27:00,35.9,29.7,29.18,WSW,256,3.5,3.5,78,0.00,CLR,CLR,0.00,WeatherDisplay:10.37,2013-02-14 13:27:00,
2013-02-14 08:32:00,36.0,29.5,29.13,West,263,4.6,4.6,77,0.00,CLR,CLR,0.00,WeatherDisplay:10.37,2013-02-14 13:32:00,
2013-02-14 08:37:00,36.1,29.3,29.19,West,259,3.5,3.5,76,0.00,CLR,CLR,0.00,WeatherDisplay:10.37,2013-02-14 13:37:00,
2013-02-14 08:43:00,36.3,29.1,29.02,WNW,296,4.6,4.6,75,0.00,CLR,CLR,0.00,WeatherDisplay:10.37,2013-02-14 13:43:00,
2013-02-14 08:48:00,36.5,29.3,29.20,West,277,3.5,3.5,75,0.00,CLR,CLR,0.00,WeatherDisplay:10.37,2013-02-14 13:48:00,
2013-02-14 08:53:00,36.8,29.6,29.08,West,276,3.5,3.5,75,0.00,CLR,CLR,0.00,WeatherDisplay:10.37,2013-02-14 13:53:00,
2013-02-14 08:58:00,37.1,29.2,29.09,WNW,293,5.8,5.8,73,0.00,CLR,CLR,0.00,WeatherDisplay:10.37,2013-02-14 13:58:00,
2013-02-14 09:04:00,37.3,29.1,29.21,WNW,294,3.5,3.5,72,0.00,CLR,CLR,0.00,WeatherDisplay:10.37,2013-02-14 14:04:00,
2013-02-14 09:09:00,37.7,29.5,29.17,NNW,343,4.6,4.6,72,0.00,CLR,CLR,0.00,WeatherDisplay:10.37,2013-02-14 14:09:00,
2013-02-14 09:14:00,38.0,29.4,29.11,WNW,294,3.5,3.5,71,0.00,CLR,CLR,0.00,WeatherDisplay:10.37,2013-02-14 14:14:00,
2013-02-14 09:19:00,38.4,29.8,29.21,NW,309,0.0,0.3,71,0.00,CLR,CLR,0.00,WeatherDisplay:10.37,2013-02-14 14:19:00,
2013-02-14 09:25:00,38.7,30.1,29.20,NW,308,3.5,3.5,71,0.00,CLR,CLR,0.00,WeatherDisplay:10.37,2013-02-14 14:25:00,
2013-02-14 09:30:00,39.5,31.2,29.08,SW,215,3.5,3.5,72,0.00,CLR,CLR,0.00,WeatherDisplay:10.37,2013-02-14 14:30:00,
2013-02-14 09:35:00,40.0,31.0,29.14,SSW,212,2.0,2.0,70,0.00,CLR,CLR,0.00,WeatherDisplay:10.37,2013-02-14 14:35:00,
2013-02-14 09:40:00,40.5,31.5,29.07,SSW,212,3.5,3.5,70,0.00,CLR,CLR,0.00,WeatherDisplay:10.37,2013-02-14 14:40:00,
2013-02-14 09:45:00,40.8,30.3,29.10,WNW,300,4.0,4.0,66,0.00,CLR,CLR,0.00,WeatherDisplay:10.37,2013-02-14 14:45:00,
2013-02-14 09:51:00,40.9,30.8,29.11,South,169,3.5,3.5,67,0.00,CLR,CLR,0.00,WeatherDisplay:10.37,2013-02-14 14:51:00,
2013-02-14 09:56:00,41.2,31.1,28.94,SW,227,3.5,3.5,67,0.00,CLR,CLR,0.00,WeatherDisplay:10.37,2013-02-14 14:56:00,
2013-02-14 10:01:00,41.2,30.3,29.04,WNW,289,4.6,4.6,65,0.00,CLR,CLR,0.00,WeatherDisplay:10.37,2013-02-14 15:01:00,
2013-02-14 10:06:00,41.3,30.4,28.95,West,269,4.6,4.6,65,0.00,CLR,CLR,0.00,WeatherDisplay:10.37,2013-02-14 15:06:00,
2013-02-14 10:11:00,41.6,31.1,29.00,WNW,295,5.0,5.0,66,0.00,CLR,CLR,0.00,WeatherDisplay:10.37,2013-02-14 15:11:00,
2013-02-14 10:17:00,41.6,30.7,29.10,NW,305,4.6,4.6,65,0.00,CLR,CLR,0.00,WeatherDisplay:10.37,2013-02-14 15:17:00,
2013-02-14 10:22:00,41.8,31.3,29.07,West,278,3.5,3.5,66,0.00,CLR,CLR,0.00,WeatherDisplay:10.37,2013-02-14 15:22:00,
2013-02-14 10:27:00,41.8,31.3,29.05,SW,215,3.5,3.5,66,0.00,CLR,CLR,0.00,WeatherDisplay:10.37,2013-02-14 15:27:00,
2013-02-14 10:32:00,42.2,31.3,29.11,WSW,257,3.0,3.0,65,0.00,CLR,CLR,0.00,WeatherDisplay:10.37,2013-02-14 15:32:00,
2013-02-14 10:37:00,42.2,31.6,29.06,NW,306,3.5,3.5,66,0.00,CLR,CLR,0.00,WeatherDisplay:10.37,2013-02-14 15:37:00,
2013-02-14 10:43:00,42.5,31.6,28.98,SSE,150,3.5,3.5,65,0.00,CLR,CLR,0.00,WeatherDisplay:10.37,2013-02-14 15:43:00,
2013-02-14 10:48:00,42.7,32.1,28.97,SSW,194,3.5,3.5,66,0.00,CLR,CLR,0.00,WeatherDisplay:10.37,2013-02-14 15:48:00,
2013-02-14 10:53:00,42.7,31.4,29.02,WSW,255,5.8,5.8,64,0.00,CLR,CLR,0.00,WeatherDisplay:10.37,2013-02-14 15:53:00,
2013-02-14 10:58:00,42.9,31.9,28.99,West,276,4.6,4.6,65,0.00,CLR,CLR,0.00,WeatherDisplay:10.37,2013-02-14 15:58:00,
2013-02-14 11:03:00,42.9,32.3,28.87,SW,215,6.9,6.9,66,0.00,CLR,CLR,0.00,WeatherDisplay:10.37,2013-02-14 16:03:00,
2013-02-14 11:09:00,43.2,33.0,29.10,South,172,3.5,3.5,67,0.00,CLR,CLR,0.00,WeatherDisplay:10.37,2013-02-14 16:09:00,
2013-02-14 11:14:00,43.4,31.6,29.21,West,267,6.0,6.0,63,0.00,CLR,CLR,0.00,WeatherDisplay:10.37,2013-02-14 16:14:00,
2013-02-14 11:19:00,43.3,31.5,29.18,WSW,249,3.5,3.5,63,0.00,CLR,CLR,0.00,WeatherDisplay:10.37,2013-02-14 16:19:00,
2013-02-14 11:24:00,43.0,31.3,29.07,WSW,249,2.3,0.0,63,0.00,CLR,CLR,0.00,WeatherDisplay:10.37,2013-02-14 16:24:00,
2013-02-14 11:30:00,43.0,31.3,29.11,North,352,3.5,3.5,63,0.00,CLR,CLR,0.00,WeatherDisplay:10.37,2013-02-14 16:30:00,
2013-02-14 11:35:00,43.0,31.3,29.11,North,0,3.5,3.5,63,0.00,CLR,CLR,0.00,WeatherDisplay:10.37,2013-02-14 16:35:00,
2013-02-14 11:40:00,43.2,32.2,29.14,WSW,238,4.6,4.6,65,0.00,CLR,CLR,0.00,WeatherDisplay:10.37,2013-02-14 16:40:00,
2013-02-14 11:45:00,43.5,31.7,29.29,SW,216,3.5,3.5,63,0.00,CLR,CLR,0.00,WeatherDisplay:10.37,2013-02-14 16:45:00,
2013-02-14 11:50:00,43.8,31.6,29.32,West,259,3.5,3.5,62,0.00,CLR,CLR,0.00,WeatherDisplay:10.37,2013-02-14 16:50:00,
2013-02-14 11:56:00,44.1,32.3,29.39,West,266,2.3,2.3,63,0.00,CLR,CLR,0.00,WeatherDisplay:10.37,2013-02-14 16:56:00,
2013-02-14 12:01:00,44.5,31.5,29.21,SW,215,3.5,3.5,60,0.00,CLR,CLR,0.00,WeatherDisplay:10.37,2013-02-14 17:01:00,
2013-02-14 12:06:00,44.4,32.2,29.09,SSE,150,3.0,3.0,62,0.00,CLR,CLR,0.00,WeatherDisplay:10.37,2013-02-14 17:06:00,
2013-02-14 12:11:00,44.6,32.0,29.29,SE,146,6.9,6.9,61,0.00,CLR,CLR,0.00,WeatherDisplay:10.37,2013-02-14 17:11:00,
2013-02-14 12:16:00,44.9,32.3,29.55,SSW,201,6.9,6.9,61,0.00,CLR,CLR,0.00,WeatherDisplay:10.37,2013-02-14 17:16:00,
2013-02-14 12:22:00,45.4,33.5,29.78,SE,143,3.5,3.5,63,0.00,CLR,CLR,0.00,WeatherDisplay:10.37,2013-02-14 17:22:00,
2013-02-14 12:27:00,45.4,33.9,29.60,ESE,106,4.0,4.0,64,0.00,CLR,CLR,0.00,WeatherDisplay:10.37,2013-02-14 17:27:00,
2013-02-14 12:32:00,45.5,33.6,29.48,NE,56,4.6,4.6,63,0.00,CLR,CLR,0.00,WeatherDisplay:10.37,2013-02-14 17:32:00,
2013-02-14 12:37:00,45.5,33.2,29.68,NNE,20,4.6,4.6,62,0.00,CLR,CLR,0.00,WeatherDisplay:10.37,2013-02-14 17:37:00,
2013-02-14 12:43:00,45.6,32.9,29.58,North,0,3.5,3.5,61,0.00,CLR,CLR,0.00,WeatherDisplay:10.37,2013-02-14 17:43:00,
2013-02-14 12:48:00,45.8,33.9,29.60,West,262,7.0,7.0,63,0.00,CLR,CLR,0.00,WeatherDisplay:10.37,2013-02-14 17:48:00,
2013-02-14 12:53:00,46.1,33.4,29.57,SE,125,6.9,6.9,61,0.00,CLR,CLR,0.00,WeatherDisplay:10.37,2013-02-14 17:53:00,
2013-02-14 12:58:00,46.9,35.0,29.04,South,190,8.1,8.1,63,0.00,CLR,CLR,0.00,WeatherDisplay:10.37,2013-02-14 17:58:00,
2013-02-14 13:03:00,47.3,34.9,29.02,South,174,8.1,8.1,62,0.00,CLR,CLR,0.00,WeatherDisplay:10.37,2013-02-14 18:03:00,
2013-02-14 13:09:00,47.2,34.0,28.98,South,182,4.6,4.6,60,0.00,CLR,CLR,0.00,WeatherDisplay:10.37,2013-02-14 18:09:00,
2013-02-14 13:14:00,47.5,34.7,29.03,SSE,157,13.0,13.0,61,0.00,CLR,CLR,0.00,WeatherDisplay:10.37,2013-02-14 18:14:00,
2013-02-14 13:19:00,47.7,34.1,29.08,SSW,192,8.1,8.1,59,0.00,CLR,CLR,0.00,WeatherDisplay:10.37,2013-02-14 18:19:00,
2013-02-14 13:24:00,48.0,33.9,29.03,SSW,193,4.0,4.0,58,0.00,CLR,CLR,0.00,WeatherDisplay:10.37,2013-02-14 18:24:00,
2013-02-14 13:30:00,48.2,34.1,29.14,SSW,201,11.5,11.5,58,0.00,CLR,CLR,0.00,WeatherDisplay:10.37,2013-02-14 18:30:00,
2013-02-14 13:35:00,48.4,33.4,29.01,South,178,8.0,8.0,56,0.00,CLR,CLR,0.00,WeatherDisplay:10.37,2013-02-14 18:35:00,
2013-02-14 13:40:00,48.6,34.5,28.94,SSW,210,10.4,10.4,58,0.00,CLR,CLR,0.00,WeatherDisplay:10.37,2013-02-14 18:40:00,
2013-02-14 13:45:00,48.7,32.8,29.02,SSW,193,9.2,9.2,54,0.00,CLR,CLR,0.00,WeatherDisplay:10.37,2013-02-14 18:45:00,
2013-02-14 13:50:00,48.6,33.6,29.03,South,179,11.5,11.5,56,0.00,CLR,CLR,0.00,WeatherDisplay:10.37,2013-02-14 18:50:00,
2013-02-14 13:56:00,48.5,33.1,29.99,SSE,162,3.5,3.5,55,0.00,CLR,CLR,0.00,WeatherDisplay:10.37,2013-02-14 18:56:00,
2013-02-14 14:01:00,48.7,32.8,30.00,SSW,207,4.6,4.6,54,0.00,CLR,CLR,0.00,WeatherDisplay:10.37,2013-02-14 19:01:00,
2013-02-14 14:06:00,48.9,33.4,29.04,SSW,193,4.6,4.6,55,0.00,CLR,CLR,0.00,WeatherDisplay:10.37,2013-02-14 19:06:00,
2013-02-14 14:11:00,49.0,34.0,29.08,SSE,156,12.0,12.0,56,0.00,CLR,CLR,0.00,WeatherDisplay:10.37,2013-02-14 19:11:00,
2013-02-14 14:16:00,49.2,33.7,29.78,South,189,5.8,5.8,55,0.00,CLR,CLR,0.00,WeatherDisplay:10.37,2013-02-14 19:16:00,
2013-02-14 14:22:00,49.3,33.8,29.10,SSW,213,12.7,12.7,55,0.00,CLR,CLR,0.00,WeatherDisplay:10.37,2013-02-14 19:22:00,
2013-02-14 14:27:00,49.6,33.2,29.13,SW,217,10.4,10.4,53,0.00,CLR,CLR,0.00,WeatherDisplay:10.37,2013-02-14 19:27:00,
2013-02-14 14:32:00,49.7,32.3,29.04,SSW,211,11.5,11.5,51,0.00,CLR,CLR,0.00,WeatherDisplay:10.37,2013-02-14 19:32:00,
2013-02-14 14:37:00,49.6,33.6,29.05,South,180,5.8,5.8,54,0.00,CLR,CLR,0.00,WeatherDisplay:10.37,2013-02-14 19:37:00,
2013-02-14 14:42:00,49.6,33.2,30.20,South,183,10.4,10.4,53,0.00,CLR,CLR,0.00,WeatherDisplay:10.37,2013-02-14 19:42:00,
2013-02-14 14:48:00,49.8,33.3,29.06,South,174,13.8,13.8,53,0.00,CLR,CLR,0.00,WeatherDisplay:10.37,2013-02-14 19:48:00,
2013-02-14 14:53:00,49.7,32.8,29.16,SSW,209,3.5,3.5,52,0.00,CLR,CLR,0.00,WeatherDisplay:10.37,2013-02-14 19:53:00,
2013-02-14 14:58:00,49.4,33.0,29.91,South,181,11.5,11.5,53,0.00,CLR,CLR,0.00,WeatherDisplay:10.37,2013-02-14 19:58:00,
2013-02-14 15:03:00,49.7,34.2,29.90,South,191,10.4,10.4,55,0.00,CLR,CLR,0.00,WeatherDisplay:10.37,2013-02-14 20:03:00,
2013-02-14 15:08:00,49.8,33.8,29.91,South,179,16.1,16.1,54,0.00,CLR,CLR,0.00,WeatherDisplay:10.37,2013-02-14 20:08:00,
2013-02-14 15:14:00,49.6,33.6,29.85,South,176,8.1,8.1,54,0.00,CLR,CLR,0.00,WeatherDisplay:10.37,2013-02-14 20:14:00,
2013-02-14 15:19:00,49.5,33.5,29.94,South,188,10.4,10.4,54,0.00,CLR,CLR,0.00,WeatherDisplay:10.37,2013-02-14 20:19:00,
2013-02-14 15:24:00,49.7,34.2,29.95,South,187,13.0,13.0,55,0.00,CLR,CLR,0.00,WeatherDisplay:10.37,2013-02-14 20:24:00,
2013-02-14 15:29:00,49.7,33.7,30.00,South,190,6.9,6.9,54,0.00,CLR,CLR,0.00,WeatherDisplay:10.37,2013-02-14 20:29:00,
2013-02-14 15:34:00,49.5,33.5,30.04,SSW,206,10.0,10.0,54,0.00,CLR,CLR,0.00,WeatherDisplay:10.37,2013-02-14 20:34:00,
2013-02-14 15:40:00,49.5,33.5,29.90,SSW,192,11.5,11.5,54,0.00,CLR,CLR,0.00,WeatherDisplay:10.37,2013-02-14 20:40:00,
2013-02-14 15:45:00,49.6,34.1,30.42,South,176,6.9,6.9,55,0.00,CLR,CLR,0.00,WeatherDisplay:10.37,2013-02-14 20:45:00,
2013-02-14 15:50:00,49.7,34.2,30.22,SSW,204,9.2,9.2,55,0.00,CLR,CLR,0.00,WeatherDisplay:10.37,2013-02-14 20:50:00,
2013-02-14 15:55:00,49.6,33.6,30.16,SSW,194,11.5,11.5,54,0.00,CLR,CLR,0.00,WeatherDisplay:10.37,2013-02-14 20:55:00,
2013-02-14 16:01:00,49.7,33.7,30.05,SSW,213,11.5,11.5,54,0.00,CLR,CLR,0.00,WeatherDisplay:10.37,2013-02-14 21:01:00,
2013-02-14 16:06:00,49.5,33.5,29.82,South,170,10.4,10.4,54,0.00,CLR,CLR,0.00,WeatherDisplay:10.37,2013-02-14 21:06:00,
2013-02-14 16:11:00,49.6,33.6,29.82,SSW,196,12.7,12.7,54,0.00,CLR,CLR,0.00,WeatherDisplay:10.37,2013-02-14 21:11:00,
2013-02-14 16:16:00,49.6,33.6,29.91,SW,214,6.9,6.9,54,0.00,CLR,CLR,0.00,WeatherDisplay:10.37,2013-02-14 21:16:00,
2013-02-14 16:21:00,49.5,34.0,29.63,South,177,12.7,12.7,55,0.00,CLR,CLR,0.00,WeatherDisplay:10.37,2013-02-14 21:21:00,
2013-02-14 16:27:00,49.4,34.3,29.60,SSE,163,10.4,10.4,56,0.00,CLR,CLR,0.00,WeatherDisplay:10.37,2013-02-14 21:27:00,
2013-02-14 16:32:00,49.4,34.3,29.73,South,191,5.8,5.8,56,0.00,CLR,CLR,0.00,WeatherDisplay:10.37,2013-02-14 21:32:00,
2013-02-14 16:37:00,49.5,34.4,29.92,South,179,9.2,9.2,56,0.00,CLR,CLR,0.00,WeatherDisplay:10.37,2013-02-14 21:37:00,
2013-02-14 16:42:00,49.5,34.9,30.09,South,172,5.8,5.8,57,0.00,CLR,CLR,0.00,WeatherDisplay:10.37,2013-02-14 21:42:00,
2013-02-14 16:48:00,49.4,34.8,29.24,SSE,160,6.9,6.9,57,0.00,CLR,CLR,0.00,WeatherDisplay:10.37,2013-02-14 21:48:00,
2013-02-14 16:53:00,49.4,34.8,29.76,SSW,201,10.4,10.4,57,0.00,CLR,CLR,0.00,WeatherDisplay:10.37,2013-02-14 21:53:00,
2013-02-14 16:58:00,49.2,34.6,29.98,SSE,168,9.2,9.2,57,0.00,CLR,CLR,0.00,WeatherDisplay:10.37,2013-02-14 21:58:00,
2013-02-14 17:04:00,49.0,34.9,30.17,South,170,10.4,10.4,58,0.00,CLR,CLR,0.00,WeatherDisplay:10.37,2013-02-14 22:04:00,
2013-02-14 17:09:00,48.8,35.1,29.98,SSW,198,5.8,5.8,59,0.00,CLR,CLR,0.00,WeatherDisplay:10.37,2013-02-14 22:09:00,
2013-02-14 17:14:00,48.6,34.5,29.78,SSE,167,4.6,4.6,58,0.00,CLR,CLR,0.00,WeatherDisplay:10.37,2013-02-14 22:14:00,
2013-02-14 17:19:00,48.4,34.7,29.80,South,170,5.0,5.0,59,0.00,CLR,CLR,0.00,WeatherDisplay:10.37,2013-02-14 22:19:00,
2013-02-14 17:24:00,48.1,34.4,29.83,SSW,193,2.3,2.3,59,0.00,CLR,CLR,0.00,WeatherDisplay:10.37,2013-02-14 22:24:00,
2013-02-14 17:29:00,47.8,34.6,28.98,South,184,6.9,6.9,60,0.00,CLR,CLR,0.00,WeatherDisplay:10.37,2013-02-14 22:29:00,
2013-02-14 17:34:00,47.5,34.3,28.96,South,191,5.0,5.0,60,0.00,CLR,CLR,0.00,WeatherDisplay:10.37,2013-02-14 22:34:00,
2013-02-14 17:40:00,47.2,34.0,29.03,South,181,5.8,5.8,60,0.00,CLR,CLR,0.00,WeatherDisplay:10.37,2013-02-14 22:40:00,
2013-02-14 17:45:00,46.8,34.0,29.02,SSW,193,5.8,5.8,61,0.00,CLR,CLR,0.00,WeatherDisplay:10.37,2013-02-14 22:45:00,
2013-02-14 17:50:00,46.3,33.6,29.10,South,185,4.6,4.6,61,0.00,CLR,CLR,0.00,WeatherDisplay:10.37,2013-02-14 22:50:00,
2013-02-14 17:55:00,45.9,33.6,29.09,South,177,4.6,4.6,62,0.00,CLR,CLR,0.00,WeatherDisplay:10.37,2013-02-14 22:55:00,
2013-02-14 18:00:00,45.6,33.3,28.39,South,173,4.6,4.6,62,0.00,CLR,CLR,0.00,WeatherDisplay:10.37,2013-02-14 23:00:00,
2013-02-14 18:06:00,45.3,33.4,28.39,South,180,4.0,4.0,63,0.00,CLR,CLR,0.00,WeatherDisplay:10.37,2013-02-14 23:06:00,
2013-02-14 18:11:00,45.0,33.2,28.39,South,174,3.5,3.5,63,0.00,CLR,CLR,0.00,WeatherDisplay:10.37,2013-02-14 23:11:00,
2013-02-14 18:16:00,44.7,32.5,28.39,South,171,3.0,3.0,62,0.00,CLR,CLR,0.00,WeatherDisplay:10.37,2013-02-14 23:16:00,
2013-02-14 18:21:00,44.3,32.5,28.39,South,175,3.5,3.5,63,0.00,CLR,CLR,0.00,WeatherDisplay:10.37,2013-02-14 23:21:00,
2013-02-14 18:26:00,44.0,32.2,28.39,South,175,3.5,3.5,63,0.00,CLR,CLR,0.00,WeatherDisplay:10.37,2013-02-14 23:26:00,
2013-02-14 18:31:00,43.6,32.2,28.40,South,176,3.5,3.5,64,0.00,CLR,CLR,0.00,WeatherDisplay:10.37,2013-02-14 23:31:00,
2013-02-14 18:36:00,43.3,31.9,28.39,South,177,3.5,3.5,64,0.00,CLR,CLR,0.00,WeatherDisplay:10.37,2013-02-14 23:36:00,
2013-02-14 18:42:00,43.3,32.3,28.40,South,171,3.5,3.5,65,0.00,CLR,CLR,0.00,WeatherDisplay:10.37,2013-02-14 23:42:00,
2013-02-14 18:47:00,43.3,32.3,28.39,SSE,163,4.6,4.6,65,0.00,CLR,CLR,0.00,WeatherDisplay:10.37,2013-02-14 23:47:00,
2013-02-14 18:52:00,43.3,32.3,28.39,SSE,165,3.5,3.5,65,0.00,CLR,CLR,0.00,WeatherDisplay:10.37,2013-02-14 23:52:00,
2013-02-14 18:57:00,43.1,32.1,28.40,SSE,166,3.5,3.5,65,0.00,CLR,CLR,0.00,WeatherDisplay:10.37,2013-02-14 23:57:00,
2013-02-14 19:02:00,42.7,32.1,28.39,SSE,168,3.5,3.5,66,0.00,CLR,CLR,0.00,WeatherDisplay:10.37,2013-02-15 00:02:00,
2013-02-14 19:08:00,42.4,31.8,28.40,South,169,3.5,3.5,66,0.00,CLR,CLR,0.00,WeatherDisplay:10.37,2013-02-15 00:08:00,
2013-02-14 19:13:00,42.1,31.6,28.40,South,180,3.5,3.5,66,0.00,CLR,CLR,0.00,WeatherDisplay:10.37,2013-02-15 00:13:00,
2013-02-14 19:18:00,41.9,31.4,28.40,South,179,3.5,3.5,66,0.00,CLR,CLR,0.00,WeatherDisplay:10.37,2013-02-15 00:18:00,
2013-02-14 19:23:00,41.8,31.6,28.39,South,180,3.5,3.5,67,0.00,CLR,CLR,0.00,WeatherDisplay:10.37,2013-02-15 00:23:00,
2013-02-14 19:29:00,41.7,31.5,28.40,SSW,207,4.6,4.6,67,0.00,CLR,CLR,0.00,WeatherDisplay:10.37,2013-02-15 00:29:00,
2013-02-14 19:34:00,41.6,31.4,28.40,SSW,198,4.6,4.6,67,0.00,CLR,CLR,0.00,WeatherDisplay:10.37,2013-02-15 00:34:00,
2013-02-14 19:39:00,41.6,31.8,28.40,SSW,197,3.5,3.5,68,0.00,CLR,CLR,0.00,WeatherDisplay:10.37,2013-02-15 00:39:00,
2013-02-14 19:44:00,41.7,31.9,28.40,South,187,3.5,3.7,68,0.00,CLR,CLR,0.00,WeatherDisplay:10.37,2013-02-15 00:44:00,
2013-02-14 19:50:00,41.8,32.0,28.40,SSW,193,10.4,10.4,68,0.00,CLR,CLR,0.00,WeatherDisplay:10.37,2013-02-15 00:50:00,
2013-02-14 19:55:00,41.9,32.1,28.41,SSW,195,3.5,3.5,68,0.00,CLR,CLR,0.00,WeatherDisplay:10.37,2013-02-15 00:55:00,
2013-02-14 20:00:00,41.8,32.0,28.41,SSW,196,2.0,2.0,68,0.00,CLR,CLR,0.00,WeatherDisplay:10.37,2013-02-15 01:00:00,
2013-02-14 20:05:00,41.5,32.1,28.41,SSW,197,1.2,0.0,69,0.00,CLR,CLR,0.00,WeatherDisplay:10.37,2013-02-15 01:05:00,
2013-02-14 20:11:00,41.0,32.0,28.42,SSW,197,3.5,3.5,70,0.00,CLR,CLR,0.00,WeatherDisplay:10.37,2013-02-15 01:11:00,
2013-02-14 20:16:00,40.5,31.8,28.41,West,271,3.5,3.5,71,0.00,CLR,CLR,0.00,WeatherDisplay:10.37,2013-02-15 01:16:00,
2013-02-14 20:21:00,40.2,31.5,28.42,West,272,3.5,3.5,71,0.00,CLR,CLR,0.00,WeatherDisplay:10.37,2013-02-15 01:21:00,
2013-02-14 20:26:00,40.0,31.7,28.42,West,272,1.2,1.2,72,0.00,CLR,CLR,0.00,WeatherDisplay:10.37,2013-02-15 01:26:00,
2013-02-14 20:31:00,39.8,31.5,28.42,West,272,2.3,2.3,72,0.00,CLR,CLR,0.00,WeatherDisplay:10.37,2013-02-15 01:31:00,
2013-02-14 20:36:00,39.7,31.4,28.42,West,272,3.5,3.5,72,0.00,CLR,CLR,0.00,WeatherDisplay:10.37,2013-02-15 01:36:00,
2013-02-14 20:42:00,39.6,31.7,28.42,South,189,3.5,3.5,73,0.00,CLR,CLR,0.00,WeatherDisplay:10.37,2013-02-15 01:42:00,
2013-02-14 20:47:00,39.6,31.7,28.42,South,189,2.3,2.3,73,0.00,CLR,CLR,0.00,WeatherDisplay:10.37,2013-02-15 01:47:00,
2013-02-14 20:52:00,39.6,32.0,28.42,South,187,3.5,3.5,74,0.00,CLR,CLR,0.00,WeatherDisplay:10.37,2013-02-15 01:52:00,
2013-02-14 20:57:00,39.5,31.9,28.42,South,187,3.0,3.0,74,0.00,CLR,CLR,0.00,WeatherDisplay:10.37,2013-02-15 01:57:00,
2013-02-14 21:02:00,39.5,31.9,28.42,SSW,192,4.0,4.0,74,0.00,CLR,CLR,0.00,WeatherDisplay:10.37,2013-02-15 02:02:00,
2013-02-14 21:07:00,39.4,31.8,28.42,SSW,192,3.0,3.0,74,0.00,CLR,CLR,0.00,WeatherDisplay:10.37,2013-02-15 02:07:00,
2013-02-14 21:13:00,39.5,31.9,28.42,South,187,2.3,2.3,74,0.00,CLR,CLR,0.00,WeatherDisplay:10.37,2013-02-15 02:13:00,
2013-02-14 21:18:00,39.6,32.0,28.43,South,187,1.2,1.2,74,0.00,CLR,CLR,0.00,WeatherDisplay:10.37,2013-02-15 02:18:00,
2013-02-14 21:23:00,39.7,32.1,28.43,South,187,1.2,0.0,74,0.00,CLR,CLR,0.00,WeatherDisplay:10.37,2013-02-15 02:23:00,
2013-02-14 21:28:00,39.8,32.2,28.42,South,187,0.0,0.0,74,0.00,CLR,CLR,0.00,WeatherDisplay:10.37,2013-02-15 02:28:00,
2013-02-14 21:34:00,39.6,32.0,28.42,South,187,0.0,0.0,74,0.00,CLR,CLR,0.00,WeatherDisplay:10.37,2013-02-15 02:34:00,
2013-02-14 21:39:00,39.5,31.9,28.43,South,187,3.5,3.5,74,0.00,CLR,CLR,0.00,WeatherDisplay:10.37,2013-02-15 02:39:00,
2013-02-14 21:44:00,39.3,32.0,28.44,South,189,3.5,3.5,75,0.00,CLR,CLR,0.00,WeatherDisplay:10.37,2013-02-15 02:44:00,
2013-02-14 21:49:00,38.9,31.6,28.44,South,188,3.5,3.5,75,0.00,CLR,CLR,0.00,WeatherDisplay:10.37,2013-02-15 02:49:00,
2013-02-14 21:54:00,38.5,31.9,28.45,South,186,3.5,3.5,77,0.00,CLR,CLR,0.00,WeatherDisplay:10.37,2013-02-15 02:54:00,
2013-02-14 22:00:00,38.4,31.5,28.45,South,186,2.3,2.3,76,0.00,CLR,CLR,0.00,WeatherDisplay:10.37,2013-02-15 03:00:00,
2013-02-14 22:05:00,38.3,31.4,28.44,South,186,2.3,2.3,76,0.00,CLR,CLR,0.00,WeatherDisplay:10.37,2013-02-15 03:05:00,
2013-02-14 22:10:00,38.3,31.4,28.44,South,186,1.2,1.2,76,0.00,CLR,CLR,0.00,WeatherDisplay:10.37,2013-02-15 03:10:00,
2013-02-14 22:15:00,38.3,31.7,28.44,South,186,1.2,0.0,77,0.00,CLR,CLR,0.00,WeatherDisplay:10.37,2013-02-15 03:15:00,
2013-02-14 22:20:00,38.2,31.3,28.44,South,186,2.3,2.3,76,0.00,CLR,CLR,0.00,WeatherDisplay:10.37,2013-02-15 03:20:00,
2013-02-14 22:26:00,38.0,31.4,28.44,South,186,2.3,2.3,77,0.00,CLR,CLR,0.00,WeatherDisplay:10.37,2013-02-15 03:26:00,
2013-02-14 22:31:00,37.8,31.6,28.44,South,186,2.3,2.3,78,0.00,CLR,CLR,0.00,WeatherDisplay:10.37,2013-02-15 03:31:00,
2013-02-14 22:36:00,37.9,31.7,28.44,South,186,2.3,2.3,78,0.00,CLR,CLR,0.00,WeatherDisplay:10.37,2013-02-15 03:36:00,
2013-02-14 22:41:00,37.9,31.7,28.44,South,186,2.3,0.0,78,0.00,CLR,CLR,0.00,WeatherDisplay:10.37,2013-02-15 03:41:00,
2013-02-14 22:46:00,37.7,31.5,28.44,South,186,3.5,3.5,78,0.00,CLR,CLR,0.00,WeatherDisplay:10.37,2013-02-15 03:46:00,
2013-02-14 22:52:00,37.6,31.4,28.44,South,186,3.5,3.5,78,0.00,CLR,CLR,0.00,WeatherDisplay:10.37,2013-02-15 03:52:00,
2013-02-14 22:57:00,37.8,31.9,28.44,South,183,3.5,3.5,79,0.00,CLR,CLR,0.00,WeatherDisplay:10.37,2013-02-15 03:57:00,
2013-02-14 23:02:00,38.0,31.7,28.44,South,179,3.5,3.5,78,0.00,CLR,CLR,0.00,WeatherDisplay:10.37,2013-02-15 04:02:00,
2013-02-14 23:07:00,38.1,31.8,28.44,SSE,167,3.5,3.5,78,0.00,CLR,CLR,0.00,WeatherDisplay:10.37,2013-02-15 04:07:00,
2013-02-14 23:12:00,38.0,31.7,28.44,SSE,167,3.5,3.5,78,0.00,CLR,CLR,0.00,WeatherDisplay:10.37,2013-02-15 04:12:00,
2013-02-14 23:17:00,37.8,31.6,28.44,SSE,167,0.0,0.0,78,0.00,CLR,CLR,0.00,WeatherDisplay:10.37,2013-02-15 04:17:00,
2013-02-14 23:22:00,37.7,31.5,28.43,SSW,199,3.5,3.5,78,0.00,CLR,CLR,0.00,WeatherDisplay:10.37,2013-02-15 04:22:00,
2013-02-14 23:28:00,37.5,30.9,28.43,SSW,202,2.3,2.3,77,0.00,CLR,CLR,0.00,WeatherDisplay:10.37,2013-02-15 04:28:00,
2013-02-14 23:33:00,37.3,30.7,28.44,SSW,202,0.0,0.0,77,0.00,CLR,CLR,0.00,WeatherDisplay:10.37,2013-02-15 04:33:00,
2013-02-14 23:38:00,37.1,30.9,28.43,SSW,202,1.2,1.2,78,0.00,CLR,CLR,0.00,WeatherDisplay:10.37,2013-02-15 04:38:00,
2013-02-14 23:43:00,36.9,30.7,28.43,SSW,203,3.5,3.5,78,0.00,CLR,CLR,0.00,WeatherDisplay:10.37,2013-02-15 04:43:00,
2013-02-14 23:48:00,36.6,30.7,28.44,SSW,203,3.5,3.5,79,0.00,CLR,CLR,0.00,WeatherDisplay:10.37,2013-02-15 04:48:00,
2013-02-14 23:54:00,36.3,30.4,28.44,South,181,4.0,4.0,79,0.00,CLR,CLR,0.00,WeatherDisplay:10.37,2013-02-15 04:54:00,
2013-02-14 23:59:00,36.0,30.1,28.44,South,173,4.6,4.6,79,0.00,CLR,CLR,0.00,WeatherDisplay:10.37,2013-02-15 04:59:00,